createdAt,value
2018-12-05T00:02:28.397Z,47.47
2018-12-05T00:04:56.626Z,44.90
2018-12-05T00:07:24.804Z,48.33
2018-12-05T00:09:52.988Z,46.33
2018-12-05T00:12:21.149Z,46.87
2018-12-05T00:14:49.316Z,46.20
2018-12-05T00:17:17.522Z,46.67
2018-12-05T00:19:45.690Z,46.53
2018-12-05T00:22:13.875Z,45.23
2018-12-05T00:24:42.111Z,46.30
2018-12-05T00:27:10.293Z,46.33
2018-12-05T00:29:38.484Z,44.50
2018-12-05T00:32:06.681Z,45.97
2018-12-05T00:34:34.850Z,46.07
2018-12-05T00:37:03.042Z,45.87
2018-12-05T00:39:31.207Z,46.63
2018-12-05T00:41:59.366Z,45.40
2018-12-05T00:44:27.556Z,45.07
2018-12-05T00:46:55.732Z,46.73
2018-12-05T00:49:23.914Z,45.63
2018-12-05T00:51:52.440Z,45.60
2018-12-05T00:54:20.620Z,45.10
2018-12-05T00:56:48.972Z,43.83
2018-12-05T00:59:17.168Z,45.70
2018-12-05T01:01:45.348Z,45.20
2018-12-05T01:04:13.517Z,46.23
2018-12-05T01:06:41.720Z,47.03
2018-12-05T01:09:11.945Z,44.37
2018-12-05T01:11:40.757Z,45.20
2018-12-05T01:14:08.960Z,46.13
2018-12-05T01:16:37.136Z,45.03
2018-12-05T01:19:05.556Z,44.47
2018-12-05T01:21:33.732Z,47.67
2018-12-05T01:24:01.882Z,44.33
2018-12-05T01:26:30.129Z,44.30
2018-12-05T01:28:58.376Z,44.27
2018-12-05T01:31:26.532Z,46.90
2018-12-05T01:33:55.859Z,46.30
2018-12-05T01:36:25.518Z,47.10
2018-12-05T01:38:53.725Z,45.53
2018-12-05T01:41:22.023Z,46.13
2018-12-05T01:43:50.189Z,45.27
2018-12-05T01:46:18.495Z,44.47
2018-12-05T01:48:47.001Z,44.73
2018-12-05T01:51:15.179Z,45.40
2018-12-05T01:53:43.364Z,46.97
2018-12-05T01:56:11.602Z,46.03
2018-12-05T01:58:39.798Z,45.30
2018-12-05T02:01:07.956Z,44.87
2018-12-05T02:03:36.158Z,45.47
2018-12-05T02:06:04.626Z,44.77
2018-12-05T02:08:32.792Z,45.27
2018-12-05T02:11:01.585Z,47.20
2018-12-05T02:13:29.741Z,46.57
2018-12-05T02:15:57.951Z,44.67
2018-12-05T02:18:26.125Z,46.37
2018-12-05T02:20:55.568Z,45.03
2018-12-05T02:23:23.772Z,46.73
2018-12-05T02:25:51.975Z,46.33
2018-12-05T02:28:20.160Z,50.43
2018-12-05T02:30:48.325Z,46.93
2018-12-05T02:33:16.556Z,46.80
2018-12-05T02:35:44.732Z,46.43
2018-12-05T02:38:12.920Z,45.60
2018-12-05T02:40:41.431Z,46.77
2018-12-05T02:43:09.630Z,46.27
2018-12-05T02:45:37.882Z,47.40
2018-12-05T02:48:06.080Z,45.13
2018-12-05T02:50:34.230Z,48.43
2018-12-05T02:53:04.096Z,45.23
2018-12-05T02:55:32.337Z,46.83
2018-12-05T02:58:00.630Z,46.63
2018-12-05T03:00:28.803Z,46.67
2018-12-05T03:02:57.025Z,46.53
2018-12-05T03:05:25.184Z,47.43
2018-12-05T03:07:53.342Z,46.63
2018-12-05T03:10:21.514Z,44.57
2018-12-05T03:12:49.702Z,46.03
2018-12-05T03:15:17.914Z,45.50
2018-12-05T03:17:46.102Z,49.17
2018-12-05T03:20:14.269Z,45.00
2018-12-05T03:22:42.570Z,46.50
2018-12-05T03:25:10.893Z,46.73
2018-12-05T03:27:39.075Z,45.17
2018-12-05T03:30:07.499Z,46.43
2018-12-05T03:32:35.792Z,46.23
2018-12-05T03:35:04.777Z,46.10
2018-12-05T03:37:32.963Z,48.47
2018-12-05T03:40:02.047Z,46.03
2018-12-05T03:42:30.212Z,48.77
2018-12-05T03:44:58.364Z,45.90
2018-12-05T03:47:26.569Z,50.60
2018-12-05T03:50:00.267Z,46.70
2018-12-05T03:52:28.457Z,47.40
2018-12-05T03:54:56.622Z,46.27
2018-12-05T03:57:24.793Z,47.13
2018-12-05T03:59:53.005Z,48.60
2018-12-05T04:02:21.188Z,47.50
2018-12-05T04:04:49.342Z,47.53
2018-12-05T04:07:17.746Z,47.20
2018-12-05T04:09:45.916Z,47.97
2018-12-05T04:12:14.103Z,45.90
2018-12-05T04:14:42.349Z,48.70
2018-12-05T04:17:10.566Z,47.50
2018-12-05T04:19:38.709Z,46.70
2018-12-05T04:22:07.023Z,48.07
2018-12-05T04:24:35.194Z,47.53
2018-12-05T04:27:03.369Z,46.77
2018-12-05T04:29:31.546Z,48.80
2018-12-05T04:31:59.719Z,45.60
2018-12-05T04:34:27.931Z,46.43
2018-12-05T04:36:56.102Z,47.27
2018-12-05T04:39:24.313Z,48.10
2018-12-05T04:41:52.895Z,47.27
2018-12-05T04:44:21.074Z,47.47
2018-12-05T04:46:49.251Z,47.70
2018-12-05T04:49:17.466Z,48.53
2018-12-05T04:51:45.684Z,45.77
2018-12-05T04:54:13.874Z,47.60
2018-12-05T04:56:42.060Z,49.17
2018-12-05T04:59:10.671Z,47.03
2018-12-05T05:01:38.848Z,47.33
2018-12-05T05:04:07.343Z,46.00
2018-12-05T05:06:41.673Z,46.43
2018-12-05T05:09:06.894Z,46.77
2018-12-05T05:11:35.101Z,48.47
2018-12-05T05:14:03.394Z,47.93
2018-12-05T05:16:31.570Z,46.97
2018-12-05T05:18:59.769Z,48.37
2018-12-05T05:48:03.948Z,48.37
2018-12-05T05:50:33.982Z,48.07
2018-12-05T05:53:02.144Z,47.73
2018-12-05T05:55:30.318Z,47.10
2018-12-05T05:57:58.514Z,48.40
2018-12-05T06:00:26.684Z,48.13
2018-12-05T06:02:54.872Z,47.50
2018-12-05T06:05:23.033Z,49.83
2018-12-05T06:07:51.190Z,47.90
2018-12-05T06:10:19.392Z,48.83
2018-12-05T06:12:47.588Z,47.47
2018-12-05T06:15:15.733Z,48.93
2018-12-05T06:17:44.268Z,46.93
2018-12-05T06:20:12.457Z,48.00
2018-12-05T06:22:40.624Z,48.37
2018-12-05T06:25:08.932Z,50.63
2018-12-05T06:27:38.036Z,50.43
2018-12-05T06:30:07.632Z,50.03
2018-12-05T06:32:35.833Z,48.77
2018-12-05T06:35:04.539Z,49.83
2018-12-05T06:37:32.696Z,50.23
2018-12-05T06:40:00.884Z,50.47
2018-12-05T06:42:29.030Z,50.53
2018-12-05T06:44:57.196Z,51.23
2018-12-05T06:47:27.887Z,49.00
2018-12-05T06:49:56.541Z,49.43
2018-12-05T06:52:24.694Z,49.90
2018-12-05T06:54:52.873Z,50.87
2018-12-05T06:57:21.036Z,50.87
2018-12-05T06:59:49.232Z,50.80
2018-12-05T07:02:17.420Z,49.20
2018-12-05T07:04:45.589Z,49.33
2018-12-05T07:07:13.752Z,50.70
2018-12-05T07:09:42.739Z,50.97
2018-12-05T07:12:10.924Z,50.13
2018-12-05T07:14:39.096Z,51.67
2018-12-05T07:17:07.287Z,50.27
2018-12-05T07:19:35.464Z,50.63
2018-12-05T07:22:03.667Z,48.43
2018-12-05T07:24:31.865Z,50.10
2018-12-05T07:27:00.807Z,51.33
2018-12-05T07:29:28.992Z,51.10
2018-12-05T07:31:57.191Z,50.43
2018-12-05T07:34:25.382Z,50.13
2018-12-05T07:36:53.562Z,50.73
2018-12-05T07:39:21.770Z,51.53
2018-12-05T07:41:50.398Z,50.43
2018-12-05T07:44:18.599Z,49.80
2018-12-05T07:46:46.800Z,51.20
2018-12-05T07:49:14.968Z,53.77
2018-12-05T07:51:43.141Z,51.27
2018-12-05T07:54:11.317Z,50.70
2018-12-05T07:56:39.462Z,52.70
2018-12-05T07:59:08.513Z,51.50
2018-12-05T08:01:36.682Z,51.67
2018-12-05T08:04:04.950Z,52.93
2018-12-05T08:06:33.110Z,52.50
2018-12-05T08:09:01.283Z,51.43
2018-12-05T08:11:29.460Z,53.60
2018-12-05T08:13:57.761Z,51.70
2018-12-05T08:16:25.929Z,52.53
2018-12-05T08:18:55.079Z,52.63
2018-12-05T08:21:23.240Z,52.57
2018-12-05T08:23:51.413Z,51.20
2018-12-05T08:26:20.347Z,50.97
2018-12-05T08:28:48.538Z,53.03
2018-12-05T08:31:16.700Z,53.17
2018-12-05T08:33:44.911Z,53.17
2018-12-05T08:36:13.135Z,53.07
2018-12-05T08:38:41.303Z,54.23
2018-12-05T08:41:09.482Z,53.13
2018-12-05T08:43:37.670Z,55.27
2018-12-05T08:46:05.851Z,54.77
2018-12-05T08:48:34.032Z,52.87
2018-12-05T08:51:02.411Z,53.53
2018-12-05T08:53:30.571Z,58.33
2018-12-05T08:55:58.882Z,57.83
2018-12-05T08:58:27.032Z,54.27
2018-12-05T09:00:55.295Z,53.97
2018-12-05T09:03:23.481Z,56.30
2018-12-05T09:05:53.490Z,52.43
2018-12-05T09:08:21.687Z,54.53
2018-12-05T09:10:52.019Z,54.73
2018-12-05T09:13:20.192Z,56.07
2018-12-05T09:15:48.438Z,57.03
2018-12-05T09:18:16.624Z,53.43
2018-12-05T09:20:45.800Z,54.07
2018-12-05T09:23:14.002Z,54.80
2018-12-05T09:25:43.741Z,55.57
2018-12-05T09:28:11.900Z,55.67
2018-12-05T09:30:40.809Z,57.93
2018-12-05T09:33:08.993Z,56.87
2018-12-05T09:35:37.149Z,56.40
2018-12-05T09:38:05.642Z,55.33
2018-12-05T09:40:33.856Z,54.90
2018-12-05T09:43:02.772Z,54.00
2018-12-05T09:45:31.592Z,53.90
2018-12-05T09:47:59.784Z,55.10
2018-12-05T09:50:29.327Z,55.00
2018-12-05T09:52:57.501Z,54.27
2018-12-05T09:55:25.686Z,55.83
2018-12-05T09:57:53.962Z,56.27
2018-12-05T10:00:22.110Z,57.10
2018-12-05T10:02:50.296Z,56.07
2018-12-05T10:05:19.596Z,54.70
2018-12-05T10:07:47.785Z,54.60
2018-12-05T10:10:15.955Z,53.67
2018-12-05T10:12:44.106Z,54.37
2018-12-05T10:15:12.291Z,56.73
2018-12-05T10:17:40.517Z,56.07
2018-12-05T10:20:08.703Z,54.40
2018-12-05T10:22:36.880Z,54.73
2018-12-05T10:25:05.889Z,54.73
2018-12-05T10:27:34.033Z,54.90
2018-12-05T10:30:02.374Z,56.60
2018-12-05T10:32:30.542Z,56.83
2018-12-05T10:34:58.703Z,57.27
2018-12-05T10:37:27.078Z,55.77
2018-12-05T10:39:55.258Z,54.23
2018-12-05T10:42:23.405Z,54.17
2018-12-05T10:44:51.793Z,54.40
2018-12-05T10:47:19.981Z,56.23
2018-12-05T10:49:48.227Z,55.77
2018-12-05T10:52:16.529Z,55.60
2018-12-05T10:54:44.706Z,56.53
2018-12-05T10:57:12.867Z,54.07
2018-12-05T10:59:41.255Z,55.10
2018-12-05T11:02:15.091Z,55.10
2018-12-05T11:04:49.454Z,56.17
2018-12-05T11:07:24.442Z,55.63
2018-12-05T11:09:58.017Z,55.20
2018-12-05T11:12:31.704Z,56.70
2018-12-05T11:15:05.540Z,55.83
2018-12-05T11:17:39.168Z,54.67
2018-12-05T11:20:12.796Z,57.50
2018-12-05T11:22:46.490Z,55.43
2018-12-05T11:25:16.660Z,56.77
2018-12-05T11:27:44.831Z,55.73
2018-12-05T11:30:13.208Z,56.27
2018-12-05T11:32:41.368Z,57.43
2018-12-05T11:35:09.866Z,56.23
2018-12-05T11:37:38.058Z,57.63
2018-12-05T11:40:06.377Z,57.10
2018-12-05T11:42:34.543Z,58.07
2018-12-05T11:45:04.159Z,58.63
2018-12-05T11:47:32.305Z,57.33
2018-12-05T11:50:01.418Z,58.37
2018-12-05T11:52:29.806Z,56.33
2018-12-05T11:54:58.159Z,55.27
2018-12-05T11:57:26.479Z,58.83
2018-12-05T11:59:55.003Z,59.63
2018-12-05T12:02:23.162Z,60.37
2018-12-05T12:04:51.347Z,57.80
2018-12-05T12:07:20.132Z,57.10
2018-12-05T12:09:48.476Z,59.67
2018-12-05T12:12:22.003Z,58.07
2018-12-05T12:14:50.279Z,61.23
2018-12-05T12:17:18.448Z,59.70
2018-12-05T12:19:46.635Z,60.57
2018-12-05T12:22:15.356Z,59.73
2018-12-05T12:24:43.518Z,59.37
2018-12-05T12:27:11.725Z,58.73
2018-12-05T12:29:39.905Z,60.00
2018-12-05T12:32:08.110Z,59.30
2018-12-05T12:34:37.549Z,61.90
2018-12-05T12:37:05.716Z,60.43
2018-12-05T12:39:34.671Z,59.03
2018-12-05T12:42:02.907Z,60.73
2018-12-05T12:44:31.089Z,60.63
2018-12-05T12:47:00.082Z,62.60
2018-12-05T12:49:29.081Z,65.90
2018-12-05T12:51:57.243Z,64.20
2018-12-05T12:54:25.393Z,60.50
2018-12-05T12:56:53.570Z,62.13
2018-12-05T12:59:21.719Z,61.10
2018-12-05T13:01:51.014Z,61.10
2018-12-05T13:04:19.203Z,62.50
2018-12-05T13:06:48.101Z,60.93
2018-12-05T13:09:16.253Z,60.40
2018-12-05T13:11:44.427Z,60.77
2018-12-05T13:14:12.590Z,62.90
2018-12-05T13:16:40.742Z,61.43
2018-12-05T13:19:09.065Z,60.60
2018-12-05T13:21:37.209Z,61.47
2018-12-05T13:24:05.616Z,59.47
2018-12-05T13:26:35.774Z,57.57
2018-12-05T13:29:03.940Z,60.27
2018-12-05T13:31:32.104Z,60.70
2018-12-05T13:34:00.299Z,59.93
2018-12-05T13:36:28.695Z,59.40
2018-12-05T13:38:56.915Z,58.23
2018-12-05T13:41:25.137Z,60.97
2018-12-05T13:43:53.309Z,56.87
2018-12-05T13:46:21.483Z,56.83
2018-12-05T13:48:49.689Z,60.33
2018-12-05T13:51:21.137Z,59.37
2018-12-05T13:53:51.037Z,59.83
2018-12-05T13:56:20.305Z,58.47
2018-12-05T13:58:48.524Z,59.90
2018-12-05T14:01:16.711Z,60.30
2018-12-05T14:03:44.881Z,57.10
2018-12-05T14:06:13.099Z,57.47
2018-12-05T14:08:43.014Z,59.33
2018-12-05T14:11:11.194Z,59.57
2018-12-05T14:13:39.369Z,59.30
2018-12-05T14:16:07.550Z,59.63
2018-12-05T14:18:35.704Z,58.97
2018-12-05T14:21:03.974Z,57.70
2018-12-05T14:23:32.152Z,56.03
2018-12-05T14:26:00.341Z,58.17
2018-12-05T14:28:28.550Z,57.10
2018-12-05T14:30:56.731Z,60.80
2018-12-05T14:33:24.894Z,58.67
2018-12-05T14:35:53.068Z,59.33
2018-12-05T14:38:21.256Z,59.33
2018-12-05T14:40:50.084Z,59.53
2018-12-05T14:43:18.298Z,57.00
2018-12-05T14:45:46.504Z,59.23
2018-12-05T14:48:14.691Z,57.70
2018-12-05T14:50:42.845Z,58.93
2018-12-05T14:53:11.051Z,58.90
2018-12-05T14:55:39.233Z,58.10
2018-12-05T14:58:07.405Z,58.10
2018-12-05T15:00:35.578Z,58.60
2018-12-05T15:03:04.416Z,57.20
2018-12-05T15:05:32.741Z,57.43
2018-12-05T15:08:00.925Z,57.47
2018-12-05T15:10:29.090Z,56.37
2018-12-05T15:12:57.247Z,56.43
2018-12-05T15:15:25.412Z,58.83
2018-12-05T15:17:53.566Z,58.33
2018-12-05T15:20:21.788Z,62.53
2018-12-05T15:22:50.916Z,56.20
2018-12-05T15:25:19.960Z,59.13
2018-12-05T15:27:49.136Z,56.03
2018-12-05T15:30:17.424Z,57.70
2018-12-05T15:32:45.977Z,56.27
2018-12-05T15:35:14.187Z,55.43
2018-12-05T15:37:42.371Z,55.73
2018-12-05T15:40:10.740Z,55.83
2018-12-05T15:42:38.889Z,55.80
2018-12-05T15:45:09.501Z,57.33
2018-12-05T15:47:37.643Z,56.80
2018-12-05T15:50:06.741Z,56.60
2018-12-05T15:52:34.925Z,54.77
2018-12-05T15:55:03.192Z,54.90
2018-12-05T15:57:31.364Z,53.33
2018-12-05T15:59:59.537Z,55.13
2018-12-05T16:02:27.719Z,53.33
2018-12-05T16:04:55.916Z,57.50
2018-12-05T16:07:24.090Z,55.47
2018-12-05T16:09:52.355Z,55.90
2018-12-05T16:12:20.515Z,54.00
2018-12-05T16:14:48.702Z,54.37
2018-12-05T16:17:16.871Z,53.27
2018-12-05T16:19:45.933Z,54.57
2018-12-05T16:22:14.120Z,54.33
2018-12-05T16:24:42.289Z,56.50
2018-12-05T16:27:11.132Z,56.13
2018-12-05T16:29:39.312Z,56.13
2018-12-05T16:32:07.475Z,54.00
2018-12-05T16:34:35.636Z,53.83
2018-12-05T16:37:03.832Z,54.23
2018-12-05T16:39:32.015Z,56.23
2018-12-05T16:42:00.292Z,56.87
2018-12-05T16:44:28.497Z,56.20
2018-12-05T16:46:56.670Z,55.03
2018-12-05T17:07:23.644Z,53.20
2018-12-05T17:09:51.816Z,54.13
2018-12-05T17:12:20.009Z,55.17
2018-12-05T17:14:48.186Z,56.20
2018-12-05T17:17:16.333Z,54.27
2018-12-05T17:19:46.235Z,55.03
2018-12-05T17:22:14.639Z,55.67
2018-12-05T17:24:43.051Z,54.03
2018-12-05T17:27:11.235Z,54.77
2018-12-05T17:29:39.442Z,54.70
2018-12-05T17:32:07.623Z,55.63
2018-12-05T17:34:35.805Z,55.97
2018-12-05T17:37:04.144Z,55.50
2018-12-05T17:39:32.343Z,55.33
2018-12-05T17:42:00.509Z,55.43
2018-12-05T17:44:28.661Z,58.90
2018-12-05T17:46:56.828Z,54.60
2018-12-05T17:49:24.996Z,56.77
2018-12-05T17:51:54.959Z,56.33
2018-12-05T17:54:23.698Z,58.13
2018-12-05T17:56:52.303Z,57.43
2018-12-05T17:59:20.753Z,56.67
2018-12-05T18:01:50.622Z,58.87
2018-12-05T18:04:19.593Z,56.93
2018-12-05T18:06:47.760Z,57.27
2018-12-05T18:09:15.933Z,59.73
2018-12-05T18:11:44.109Z,59.67
2018-12-05T18:14:12.669Z,57.97
2018-12-05T18:16:40.870Z,56.10
2018-12-05T18:19:09.094Z,58.47
2018-12-05T18:21:37.274Z,57.53
2018-12-05T18:24:05.451Z,57.83
2018-12-05T18:26:33.613Z,58.70
2018-12-05T18:29:03.017Z,56.77
2018-12-05T18:31:31.256Z,57.77
2018-12-05T18:33:59.449Z,56.70
2018-12-05T18:36:27.598Z,58.40
2018-12-05T18:38:56.682Z,59.50
2018-12-05T18:41:24.858Z,62.43
2018-12-05T18:43:53.035Z,60.67
2018-12-05T18:46:21.235Z,58.50
2018-12-05T18:48:49.895Z,59.07
2018-12-05T18:51:18.090Z,59.50
2018-12-05T18:53:46.324Z,58.00
2018-12-05T18:56:14.499Z,61.13
2018-12-05T18:58:42.697Z,58.47
2018-12-05T19:01:10.893Z,57.73
2018-12-05T19:03:40.203Z,58.20
2018-12-05T19:06:08.384Z,58.70
2018-12-05T19:08:36.593Z,57.43
2018-12-05T19:11:05.357Z,58.40
2018-12-05T19:13:35.568Z,58.47
2018-12-05T19:16:03.733Z,58.93
2018-12-05T19:18:32.060Z,57.17
2018-12-05T19:21:00.436Z,58.27
2018-12-05T19:23:28.625Z,60.60
2018-12-05T19:25:56.803Z,61.17
2018-12-05T19:28:24.973Z,57.77
2018-12-05T19:30:53.252Z,57.93
2018-12-05T19:33:21.579Z,60.97
2018-12-05T19:35:49.788Z,58.00
2018-12-05T19:38:17.962Z,61.03
2018-12-05T19:40:46.240Z,59.30
2018-12-05T19:43:14.417Z,60.97
2018-12-05T19:45:42.588Z,60.47
2018-12-05T19:48:10.784Z,61.97
2018-12-05T19:50:38.955Z,59.17
2018-12-05T19:53:07.524Z,59.17
2018-12-05T19:55:35.899Z,58.90
2018-12-05T19:58:04.070Z,60.63
2018-12-05T20:00:32.248Z,60.47
2018-12-05T20:03:00.438Z,60.73
2018-12-05T20:05:29.300Z,62.83
2018-12-05T20:07:57.473Z,59.90
2018-12-05T20:10:25.674Z,61.50
2018-12-05T20:12:53.862Z,59.27
2018-12-05T20:15:22.037Z,61.17
2018-12-05T20:17:50.530Z,62.20
2018-12-05T20:20:18.724Z,61.07
2018-12-05T20:22:47.034Z,60.73
2018-12-05T20:25:15.193Z,58.47
2018-12-05T20:27:43.600Z,58.87
2018-12-05T20:30:11.800Z,59.73
2018-12-05T20:32:39.971Z,58.70
2018-12-05T20:35:09.179Z,59.90
2018-12-05T20:37:37.363Z,60.87
2018-12-05T20:40:05.871Z,61.07
2018-12-05T20:42:34.058Z,59.63
2018-12-05T20:45:03.111Z,60.47
2018-12-05T20:47:31.275Z,58.97
2018-12-05T20:49:59.530Z,60.10
2018-12-05T20:52:27.679Z,59.97
2018-12-05T20:54:55.930Z,61.30
2018-12-05T20:57:24.117Z,62.07
2018-12-05T20:59:52.269Z,61.07
2018-12-05T21:02:20.444Z,58.47
2018-12-05T21:04:48.640Z,59.43
2018-12-05T21:07:16.815Z,59.27
2018-12-05T21:09:44.999Z,58.13
2018-12-05T21:12:13.297Z,58.77
2018-12-05T21:14:42.191Z,56.90
2018-12-05T21:17:10.376Z,59.53
2018-12-05T21:19:38.564Z,60.17
2018-12-05T21:22:06.727Z,58.00
2018-12-05T21:24:34.888Z,59.23
2018-12-05T21:27:03.073Z,59.53
2018-12-05T21:29:31.291Z,58.13
2018-12-05T21:31:59.560Z,57.73
2018-12-05T21:34:28.704Z,57.97
2018-12-05T21:36:56.857Z,57.67
2018-12-05T21:39:25.035Z,57.60
2018-12-05T21:41:54.235Z,58.27
2018-12-05T21:44:22.410Z,56.73
2018-12-05T21:46:50.605Z,56.40
2018-12-05T21:49:19.554Z,55.67
2018-12-05T21:51:48.777Z,57.93
2018-12-05T21:54:16.934Z,55.60
2018-12-05T21:56:45.146Z,58.87
2018-12-05T21:59:14.213Z,57.83
2018-12-05T22:01:42.435Z,56.97
2018-12-05T22:04:10.635Z,58.70
2018-12-05T22:06:39.294Z,57.47
2018-12-05T22:09:09.395Z,56.87
2018-12-05T22:11:37.564Z,55.47
2018-12-05T22:14:05.847Z,57.63
2018-12-05T22:16:34.029Z,57.63
2018-12-05T22:19:02.220Z,57.93
2018-12-05T22:21:30.369Z,58.23
2018-12-05T22:23:58.518Z,57.50
2018-12-05T22:26:26.737Z,58.90
2018-12-05T22:28:54.906Z,57.73
2018-12-05T22:31:23.408Z,59.87
2018-12-05T22:33:54.491Z,59.90
2018-12-05T22:36:22.771Z,58.77
2018-12-05T22:57:14.068Z,57.67
2018-12-05T22:59:42.304Z,57.47
2018-12-05T23:02:10.615Z,57.73
2018-12-05T23:04:38.900Z,58.60
2018-12-05T23:07:08.377Z,59.50
2018-12-05T23:09:36.879Z,57.23
2018-12-05T23:12:05.183Z,57.17
2018-12-05T23:14:33.356Z,55.30
2018-12-05T23:17:01.512Z,56.90
2018-12-05T23:19:29.716Z,57.17
2018-12-05T23:21:57.860Z,56.20
2018-12-05T23:24:26.020Z,57.77
2018-12-05T23:26:54.973Z,58.40
2018-12-05T23:29:23.308Z,57.43
2018-12-05T23:31:51.452Z,58.43
2018-12-05T23:34:20.316Z,56.53
2018-12-05T23:36:48.465Z,56.40
2018-12-05T23:39:16.794Z,58.60
2018-12-05T23:41:45.794Z,56.90
2018-12-05T23:44:14.000Z,58.07
2018-12-05T23:46:42.157Z,57.13
2018-12-05T23:49:11.040Z,55.90
2018-12-05T23:51:39.245Z,54.37
2018-12-05T23:54:07.401Z,55.67
2018-12-05T23:56:35.939Z,56.50
2018-12-05T23:59:04.208Z,56.20
